Weather at Yogosem Airstrip

Public forecast

Using degrees Celsius for public forecast. Weather courtesy of forecast.io.

Closest aviation weather report (METAR) to Yogosem Airstrip

Closest report is Dortheys Hiyo Eluay International Airport, 128.8 nm (238.5 km) NE.

2023/10/02 18:30 (retrieved 20 minutes ago)

WAJJ 021830Z AUTO VRB02KT 9999 -RA FEW021 BKN035 OVC065 24/24 Q1012

Closest aviation forecast (TAF) to Yogosem Airstrip

Closest forecast is Bandanaira Airport, 554.8 nm (1,027.5 km) W.

2023/10/02 18:51 (retrieved 0 seconds ago)

TAF WAPC 021700Z 0218/0306 11009KT 8000 SCT020 TEMPO 0300/0303 5000 TSRA FEW019CB